Time;durP1;ratioP1;P1;durP2;ratioP2;P2;SDS_P1;SDS_P2;PMS_P1;PMS_P2;Temp;Humidity;BMP_temperature;BMP_pressure;BME280_temperature;BME280_humidity;BME280_pressure;Samples;Min_cycle;Max_cycle;Signal;HPM_P1;HPM_P2
2023/03/19 00:00:00;;;;;;;3.17;2.97;;;;;;;;;;5090454;28;20482;-48
2023/03/19 00:02:26;;;;;;;6.73;3.50;;;;;;;;;;5091181;28;20462;-43
2023/03/19 00:04:52;;;;;;;3.10;2.90;;;;;;;;;;5085125;28;20494;-43
2023/03/19 00:07:18;;;;;;;3.53;3.17;;;;;;;;;;5091854;28;20832;-43
2023/03/19 00:09:47;;;;;;;6.93;3.80;;;;;;;;;;5089992;28;20434;-45
2023/03/19 00:12:12;;;;;;;4.83;3.17;;;;;;;;;;5091027;28;20850;-43
2023/03/19 00:14:39;;;;;;;4.63;3.20;;;;;;;;;;5087403;28;21027;-43
2023/03/19 00:17:06;;;;;;;5.37;3.30;;;;;;;;;;5091623;28;20446;-43
2023/03/19 00:19:32;;;;;;;3.03;2.67;;;;;;;;;;5091356;28;20403;-43
2023/03/19 00:21:58;;;;;;;4.50;3.27;;;;;;;;;;5090852;28;20415;-43
2023/03/19 00:24:24;;;;;;;4.90;2.97;;;;;;;;;;5090025;28;20459;-43
2023/03/19 00:26:50;;;;;;;3.17;2.80;;;;;;;;;;5091353;28;20452;-43
2023/03/19 00:29:16;;;;;;;6.90;3.37;;;;;;;;;;5088133;28;20433;-43
2023/03/19 00:31:42;;;;;;;4.83;3.43;;;;;;;;;;5090686;28;20424;-43
2023/03/19 00:34:08;;;;;;;2.97;2.60;;;;;;;;;;5091008;28;20456;-43
2023/03/19 00:36:35;;;;;;;6.93;3.20;;;;;;;;;;5091342;28;20892;-42
2023/03/19 00:39:02;;;;;;;5.67;3.70;;;;;;;;;;5091235;28;20401;-43
2023/03/19 00:41:28;;;;;;;4.30;3.30;;;;;;;;;;5090604;28;20430;-43
2023/03/19 00:43:54;;;;;;;8.10;3.83;;;;;;;;;;5091155;28;20927;-42
2023/03/19 00:46:20;;;;;;;7.47;4.70;;;;;;;;;;5091302;28;20416;-44
2023/03/19 00:48:46;;;;;;;8.07;4.10;;;;;;;;;;5090820;28;20821;-42
2023/03/19 00:51:12;;;;;;;10.23;6.07;;;;;;;;;;5089288;28;20446;-43
2023/03/19 00:53:42;;;;;;;7.60;4.40;;;;;;;;;;5091172;28;20455;-43
2023/03/19 00:56:09;;;;;;;5.10;4.37;;;;;;;;;;5092528;28;20926;-42
2023/03/19 00:58:37;;;;;;;6.90;4.07;;;;;;;;;;5086762;28;20426;-43
2023/03/19 01:01:03;;;;;;;5.40;4.03;;;;;;;;;;5093324;28;20416;-43
2023/03/19 01:03:29;;;;;;;4.80;3.87;;;;;;;;;;5094981;28;20787;-43
2023/03/19 01:05:55;;;;;;;9.63;3.43;;;;;;;;;;5093383;28;20413;-43
2023/03/19 01:08:21;;;;;;;3.97;3.67;;;;;;;;;;5094903;28;20404;-43
2023/03/19 01:10:47;;;;;;;6.77;3.70;;;;;;;;;;5093787;28;20453;-43
2023/03/19 01:13:14;;;;;;;3.60;3.30;;;;;;;;;;5094318;28;20409;-43
2023/03/19 01:15:41;;;;;;;4.57;3.10;;;;;;;;;;5094442;28;20435;-43
2023/03/19 01:18:07;;;;;;;7.17;3.40;;;;;;;;;;5094657;28;20405;-46
2023/03/19 01:20:34;;;;;;;4.40;3.30;;;;;;;;;;5092503;28;20463;-43
2023/03/19 01:23:00;;;;;;;6.17;3.13;;;;;;;;;;5094243;28;20553;-43
2023/03/19 01:25:26;;;;;;;4.87;3.43;;;;;;;;;;5094344;28;20906;-43
2023/03/19 01:27:53;;;;;;;12.37;3.47;;;;;;;;;;5093699;28;20963;-48
2023/03/19 01:30:19;;;;;;;6.57;3.57;;;;;;;;;;5087257;28;20415;-42
2023/03/19 01:32:45;;;;;;;5.13;3.80;;;;;;;;;;5093002;28;20447;-43
2023/03/19 01:35:11;;;;;;;4.60;3.90;;;;;;;;;;5094230;28;20933;-43
2023/03/19 01:37:37;;;;;;;6.70;3.90;;;;;;;;;;5094058;28;20498;-42
2023/03/19 01:40:04;;;;;;;5.80;3.87;;;;;;;;;;5088926;28;20416;-45
2023/03/19 01:42:30;;;;;;;10.00;3.80;;;;;;;;;;5092594;28;20436;-45
2023/03/19 01:44:56;;;;;;;5.60;4.20;;;;;;;;;;5093845;28;20476;-45
2023/03/19 01:47:34;;;;;;;4.20;3.90;;;;;;;;;;5093897;28;20424;-43
2023/03/19 01:50:00;;;;;;;6.60;3.87;;;;;;;;;;5090906;28;20780;-43
2023/03/19 01:52:28;;;;;;;4.30;3.23;;;;;;;;;;5093245;28;20424;-43
2023/03/19 01:54:55;;;;;;;5.27;3.30;;;;;;;;;;5093750;28;20459;-43
2023/03/19 01:57:22;;;;;;;4.70;4.20;;;;;;;;;;5093203;28;20908;-47
2023/03/19 01:59:50;;;;;;;4.00;3.70;;;;;;;;;;5082755;28;20502;-43
2023/03/19 02:02:21;;;;;;;4.63;3.57;;;;;;;;;;5092043;28;20419;-44
2023/03/19 02:04:48;;;;;;;6.07;3.50;;;;;;;;;;5086367;28;20442;-43
2023/03/19 02:07:15;;;;;;;12.40;4.23;;;;;;;;;;5092227;28;20412;-45
2023/03/19 02:09:41;;;;;;;3.50;3.13;;;;;;;;;;5092739;28;20416;-43
2023/03/19 02:12:07;;;;;;;4.67;3.87;;;;;;;;;;5092473;28;20779;-43
2023/03/19 02:14:33;;;;;;;3.60;3.27;;;;;;;;;;5090574;28;20459;-44
2023/03/19 02:16:59;;;;;;;4.47;3.80;;;;;;;;;;5093372;28;20981;-44
2023/03/19 02:19:31;;;;;;;5.53;5.13;;;;;;;;;;5093179;28;20403;-45
2023/03/19 02:21:58;;;;;;;4.17;3.40;;;;;;;;;;5092446;28;20443;-43
2023/03/19 02:24:35;;;;;;;4.53;3.53;;;;;;;;;;5093100;28;20791;-42
2023/03/19 02:27:01;;;;;;;9.33;4.23;;;;;;;;;;5093296;28;20490;-43
2023/03/19 02:29:27;;;;;;;6.67;4.17;;;;;;;;;;5091856;28;20472;-43
2023/03/19 02:31:53;;;;;;;4.70;3.80;;;;;;;;;;5091172;28;20412;-42
2023/03/19 02:34:22;;;;;;;9.90;4.07;;;;;;;;;;5092374;28;20443;-43
2023/03/19 02:36:57;;;;;;;5.93;3.97;;;;;;;;;;5092996;28;20460;-45
2023/03/19 02:39:29;;;;;;;5.53;4.10;;;;;;;;;;5092735;28;20443;-42
2023/03/19 02:41:56;;;;;;;5.43;3.97;;;;;;;;;;5092048;28;20413;-45
2023/03/19 02:44:22;;;;;;;5.80;3.27;;;;;;;;;;5091946;28;20467;-43
2023/03/19 02:46:47;;;;;;;8.33;3.33;;;;;;;;;;5097644;28;20910;-43
2023/03/19 02:49:14;;;;;;;5.20;3.80;;;;;;;;;;5088434;28;20408;-43
2023/03/19 02:51:40;;;;;;;3.87;3.47;;;;;;;;;;5091940;28;20408;-43
2023/03/19 02:54:07;;;;;;;4.17;3.13;;;;;;;;;;5092499;28;20454;-42
2023/03/19 02:56:33;;;;;;;5.20;2.60;;;;;;;;;;5092649;28;20436;-42
2023/03/19 02:59:01;;;;;;;5.23;2.70;;;;;;;;;;5092712;28;20731;-42
2023/03/19 03:01:27;;;;;;;6.80;3.37;;;;;;;;;;5091883;28;20495;-43
2023/03/19 03:03:53;;;;;;;5.73;3.40;;;;;;;;;;5092392;28;20431;-43
2023/03/19 03:06:19;;;;;;;5.20;3.10;;;;;;;;;;5092293;28;20415;-43
2023/03/19 03:08:45;;;;;;;2.80;2.50;;;;;;;;;;5092238;28;20419;-43
2023/03/19 03:11:11;;;;;;;4.47;2.50;;;;;;;;;;5090857;28;20494;-43
2023/03/19 03:13:37;;;;;;;3.20;2.67;;;;;;;;;;5092117;28;20951;-43
2023/03/19 03:16:03;;;;;;;2.37;2.17;;;;;;;;;;5092255;28;20416;-43
2023/03/19 03:18:29;;;;;;;3.60;2.60;;;;;;;;;;5076507;28;20886;-43
2023/03/19 03:20:55;;;;;;;3.40;3.00;;;;;;;;;;5083893;28;20494;-43
2023/03/19 03:23:21;;;;;;;5.20;2.80;;;;;;;;;;5092121;28;20423;-42
2023/03/19 03:25:51;;;;;;;2.87;2.57;;;;;;;;;;5091257;28;20411;-43
2023/03/19 03:28:17;;;;;;;3.40;2.47;;;;;;;;;;5092154;28;20404;-42
2023/03/19 03:30:43;;;;;;;4.63;3.03;;;;;;;;;;5091277;28;20412;-42
2023/03/19 03:33:09;;;;;;;2.50;2.30;;;;;;;;;;5091865;28;20418;-42
2023/03/19 03:35:35;;;;;;;2.77;2.53;;;;;;;;;;5085909;28;20563;-43
2023/03/19 03:38:03;;;;;;;3.50;2.80;;;;;;;;;;5091093;28;20413;-43
2023/03/19 03:40:29;;;;;;;2.67;2.47;;;;;;;;;;5090455;28;20490;-43
2023/03/19 03:42:56;;;;;;;2.93;2.70;;;;;;;;;;5091805;28;20438;-43
2023/03/19 03:45:22;;;;;;;3.63;2.53;;;;;;;;;;5091813;28;20415;-43
2023/03/19 03:47:48;;;;;;;2.90;2.30;;;;;;;;;;5091744;28;20935;-44
2023/03/19 03:50:14;;;;;;;5.70;3.00;;;;;;;;;;5091073;28;20423;-44
2023/03/19 03:52:40;;;;;;;3.10;2.77;;;;;;;;;;5091362;28;20432;-44
2023/03/19 03:55:07;;;;;;;3.13;2.77;;;;;;;;;;5091544;28;20970;-42
2023/03/19 03:57:34;;;;;;;4.90;3.07;;;;;;;;;;5082849;28;20769;-42
2023/03/19 03:59:59;;;;;;;4.93;2.87;;;;;;;;;;5087415;28;20458;-44
2023/03/19 04:02:26;;;;;;;3.90;2.70;;;;;;;;;;5091144;28;20466;-43
2023/03/19 04:04:52;;;;;;;4.47;2.67;;;;;;;;;;5091573;28;20883;-43
2023/03/19 04:07:18;;;;;;;4.17;2.67;;;;;;;;;;5091007;28;20927;-42
2023/03/19 04:09:44;;;;;;;3.90;2.93;;;;;;;;;;5091550;28;20404;-43
2023/03/19 04:12:11;;;;;;;4.97;3.33;;;;;;;;;;5090979;28;20407;-43
2023/03/19 04:14:37;;;;;;;5.90;2.73;;;;;;;;;;5091324;28;20998;-42
2023/03/19 04:17:04;;;;;;;5.17;2.70;;;;;;;;;;5091574;28;20412;-42
2023/03/19 04:19:30;;;;;;;2.63;2.37;;;;;;;;;;5091393;28;20411;-46
2023/03/19 04:21:56;;;;;;;5.83;2.67;;;;;;;;;;5086736;28;20421;-43
2023/03/19 04:24:22;;;;;;;4.10;3.07;;;;;;;;;;5088229;28;20416;-43
2023/03/19 04:26:49;;;;;;;3.30;2.60;;;;;;;;;;5087538;28;20460;-43
2023/03/19 04:29:17;;;;;;;3.43;2.83;;;;;;;;;;5091252;28;20769;-43
2023/03/19 04:31:44;;;;;;;3.30;3.00;;;;;;;;;;5093442;28;20943;-43
2023/03/19 04:34:11;;;;;;;3.50;2.63;;;;;;;;;;5095262;28;20523;-42
2023/03/19 04:36:37;;;;;;;3.97;2.70;;;;;;;;;;5094861;28;20407;-42
2023/03/19 04:39:03;;;;;;;3.53;3.17;;;;;;;;;;5095170;28;20408;-44
2023/03/19 04:41:29;;;;;;;5.80;3.10;;;;;;;;;;5094571;28;20776;-44
2023/03/19 04:43:55;;;;;;;3.47;2.80;;;;;;;;;;5094944;28;20763;-43
2023/03/19 04:46:21;;;;;;;4.67;2.40;;;;;;;;;;5095159;28;20971;-43
2023/03/19 04:48:47;;;;;;;4.10;3.40;;;;;;;;;;5094487;28;20421;-43
2023/03/19 04:51:13;;;;;;;3.80;2.90;;;;;;;;;;5094426;28;20411;-43
2023/03/19 04:53:40;;;;;;;3.87;2.97;;;;;;;;;;5086388;28;20472;-43
2023/03/19 04:56:06;;;;;;;3.73;3.10;;;;;;;;;;5092441;28;20416;-42
2023/03/19 04:58:33;;;;;;;3.00;2.80;;;;;;;;;;5094170;28;20773;-44
2023/03/19 05:00:59;;;;;;;5.60;3.30;;;;;;;;;;5093179;28;20413;-43
2023/03/19 05:03:25;;;;;;;5.20;2.90;;;;;;;;;;5094332;28;20476;-45
2023/03/19 05:05:53;;;;;;;2.60;2.40;;;;;;;;;;5094614;28;20411;-44
2023/03/19 05:08:18;;;;;;;3.77;3.10;;;;;;;;;;5094789;28;20404;-43
2023/03/19 05:10:44;;;;;;;3.93;3.00;;;;;;;;;;5093974;28;20464;-43
2023/03/19 05:13:10;;;;;;;4.53;2.77;;;;;;;;;;5093267;28;20466;-42
2023/03/19 05:15:37;;;;;;;3.30;3.00;;;;;;;;;;5093267;28;20775;-42
2023/03/19 05:18:03;;;;;;;5.23;3.20;;;;;;;;;;5093885;28;20499;-43
2023/03/19 05:20:29;;;;;;;3.43;2.77;;;;;;;;;;5094187;28;20500;-43
2023/03/19 05:22:55;;;;;;;3.27;3.07;;;;;;;;;;5091329;28;20443;-44
2023/03/19 05:25:21;;;;;;;3.43;2.40;;;;;;;;;;5093508;28;20915;-43
2023/03/19 05:27:47;;;;;;;5.30;3.43;;;;;;;;;;5094172;28;20420;-44
2023/03/19 05:30:13;;;;;;;4.50;3.00;;;;;;;;;;5093559;28;20419;-44
2023/03/19 05:32:39;;;;;;;2.80;2.40;;;;;;;;;;5093911;28;20439;-44
2023/03/19 05:35:05;;;;;;;4.77;3.10;;;;;;;;;;5093956;28;20463;-44
2023/03/19 05:37:32;;;;;;;3.63;3.20;;;;;;;;;;5094231;28;20450;-44
2023/03/19 05:39:58;;;;;;;3.00;2.80;;;;;;;;;;5093663;28;20462;-44
2023/03/19 05:42:24;;;;;;;3.10;2.80;;;;;;;;;;5091977;28;20441;-43
2023/03/19 05:44:50;;;;;;;6.70;2.90;;;;;;;;;;5093726;28;20440;-43
2023/03/19 05:47:16;;;;;;;3.20;2.70;;;;;;;;;;5094017;28;20409;-44
2023/03/19 05:49:42;;;;;;;4.10;3.50;;;;;;;;;;5093807;28;20465;-46
2023/03/19 05:52:08;;;;;;;4.40;2.70;;;;;;;;;;5088793;28;20988;-44
2023/03/19 05:54:34;;;;;;;5.70;2.80;;;;;;;;;;5085828;28;21043;-44
2023/03/19 05:57:01;;;;;;;3.43;2.50;;;;;;;;;;5093771;28;20407;-44
2023/03/19 05:59:27;;;;;;;2.73;2.20;;;;;;;;;;5093359;28;20450;-44
2023/03/19 06:01:53;;;;;;;2.93;2.53;;;;;;;;;;5093073;28;20412;-44
2023/03/19 06:04:19;;;;;;;4.70;3.13;;;;;;;;;;5093697;28;20412;-45
2023/03/19 06:06:46;;;;;;;3.63;2.77;;;;;;;;;;5093596;28;20413;-44
2023/03/19 06:09:12;;;;;;;2.90;2.50;;;;;;;;;;5093361;28;20414;-43
2023/03/19 06:11:39;;;;;;;3.47;2.90;;;;;;;;;;5092843;28;20420;-44
2023/03/19 06:14:05;;;;;;;3.67;2.67;;;;;;;;;;5092979;28;20507;-44
2023/03/19 06:16:31;;;;;;;4.57;2.90;;;;;;;;;;5093446;28;20425;-44
2023/03/19 06:18:57;;;;;;;4.93;2.83;;;;;;;;;;5093176;28;21017;-43
2023/03/19 06:21:28;;;;;;;2.70;2.50;;;;;;;;;;5091312;28;20788;-43
2023/03/19 06:23:54;;;;;;;3.40;3.10;;;;;;;;;;5092022;28;20451;-44
2023/03/19 06:26:20;;;;;;;8.17;3.30;;;;;;;;;;5082110;28;20923;-43
2023/03/19 06:28:46;;;;;;;3.43;2.63;;;;;;;;;;5092958;28;20499;-44
2023/03/19 06:31:12;;;;;;;3.57;2.80;;;;;;;;;;5092482;28;20408;-43
2023/03/19 06:33:38;;;;;;;5.00;2.80;;;;;;;;;;5093017;28;20944;-44
2023/03/19 06:36:04;;;;;;;3.00;2.70;;;;;;;;;;5092980;28;20410;-44
2023/03/19 06:38:30;;;;;;;4.20;2.93;;;;;;;;;;5092730;28;20407;-44
2023/03/19 06:40:56;;;;;;;3.37;2.80;;;;;;;;;;5092079;28;20456;-44
2023/03/19 06:43:22;;;;;;;3.30;2.77;;;;;;;;;;5092883;28;20424;-45
2023/03/19 06:45:48;;;;;;;4.50;2.87;;;;;;;;;;5092755;28;20415;-44
2023/03/19 06:48:14;;;;;;;2.30;2.13;;;;;;;;;;5092881;28;20421;-44
2023/03/19 06:50:40;;;;;;;5.70;3.13;;;;;;;;;;5092133;28;20408;-44
2023/03/19 06:53:07;;;;;;;2.97;2.63;;;;;;;;;;5085764;28;20629;-43
2023/03/19 06:55:33;;;;;;;2.93;2.57;;;;;;;;;;5092463;28;20468;-44
2023/03/19 06:57:59;;;;;;;3.80;2.80;;;;;;;;;;5092520;28;20538;-45
2023/03/19 07:00:25;;;;;;;3.97;3.00;;;;;;;;;;5091847;28;20443;-45
2023/03/19 07:02:51;;;;;;;3.10;2.90;;;;;;;;;;5092541;28;20424;-43
2023/03/19 07:05:17;;;;;;;3.17;2.53;;;;;;;;;;5092513;28;20414;-44
2023/03/19 07:07:43;;;;;;;2.87;2.67;;;;;;;;;;5092379;28;20416;-43
2023/03/19 07:10:09;;;;;;;2.50;2.23;;;;;;;;;;5091730;28;20467;-43
2023/03/19 07:12:35;;;;;;;3.57;3.27;;;;;;;;;;5092301;28;20521;-44
2023/03/19 07:15:01;;;;;;;3.27;2.97;;;;;;;;;;5092031;28;20550;-44
2023/03/19 07:17:27;;;;;;;3.80;2.80;;;;;;;;;;5092220;28;20970;-44
2023/03/19 07:19:53;;;;;;;3.03;2.70;;;;;;;;;;5092154;28;20409;-44
2023/03/19 07:22:19;;;;;;;3.13;2.87;;;;;;;;;;5089497;28;20463;-44
2023/03/19 07:24:45;;;;;;;3.07;2.80;;;;;;;;;;5087439;28;20478;-44
2023/03/19 07:27:11;;;;;;;5.53;4.00;;;;;;;;;;5090623;28;20499;-45
2023/03/19 07:29:37;;;;;;;3.10;2.80;;;;;;;;;;5092140;28;20412;-44
2023/03/19 07:32:03;;;;;;;8.57;3.87;;;;;;;;;;5091300;28;20729;-43
2023/03/19 07:34:29;;;;;;;3.33;3.13;;;;;;;;;;5091638;28;20542;-44
2023/03/19 07:36:55;;;;;;;3.00;2.80;;;;;;;;;;5091800;28;20957;-44
2023/03/19 07:39:21;;;;;;;4.33;3.63;;;;;;;;;;5091892;28;20395;-43
2023/03/19 07:41:48;;;;;;;4.83;3.33;;;;;;;;;;5089725;28;20503;-44
2023/03/19 07:44:14;;;;;;;3.17;2.87;;;;;;;;;;5091846;28;20432;-43
2023/03/19 07:46:40;;;;;;;3.60;3.30;;;;;;;;;;5091825;28;20426;-43
2023/03/19 07:49:06;;;;;;;4.23;3.40;;;;;;;;;;5092212;28;20412;-44
2023/03/19 07:51:32;;;;;;;3.20;2.90;;;;;;;;;;5091029;28;20423;-43
2023/03/19 07:53:58;;;;;;;4.63;3.30;;;;;;;;;;5086710;28;20466;-44
2023/03/19 07:56:25;;;;;;;3.33;3.13;;;;;;;;;;5081466;28;20797;-44
2023/03/19 07:58:51;;;;;;;4.97;3.40;;;;;;;;;;5089839;28;20424;-43
2023/03/19 08:01:17;;;;;;;6.53;3.60;;;;;;;;;;5085978;28;20427;-43
2023/03/19 08:03:43;;;;;;;5.40;3.47;;;;;;;;;;5087967;28;20432;-44
2023/03/19 08:06:09;;;;;;;3.77;3.47;;;;;;;;;;5093035;28;20427;-44
2023/03/19 08:08:35;;;;;;;4.40;3.23;;;;;;;;;;5094295;28;20416;-43
2023/03/19 08:11:02;;;;;;;4.33;3.93;;;;;;;;;;5094965;28;20412;-44
2023/03/19 08:13:28;;;;;;;5.03;3.90;;;;;;;;;;5092845;28;21315;-44
2023/03/19 08:15:55;;;;;;;8.70;4.17;;;;;;;;;;5093562;28;20798;-43
2023/03/19 08:18:21;;;;;;;4.80;3.97;;;;;;;;;;5095454;28;20420;-44
2023/03/19 08:20:47;;;;;;;5.80;3.90;;;;;;;;;;5094821;28;20435;-44
2023/03/19 08:23:13;;;;;;;4.07;3.77;;;;;;;;;;5093389;28;20966;-44
2023/03/19 08:25:39;;;;;;;3.70;3.40;;;;;;;;;;5094607;28;20469;-44
2023/03/19 08:28:08;;;;;;;4.10;3.80;;;;;;;;;;5095636;28;20420;-44
2023/03/19 08:30:34;;;;;;;4.83;4.30;;;;;;;;;;5094696;28;20418;-44
2023/03/19 08:33:00;;;;;;;8.83;3.50;;;;;;;;;;5095528;28;20801;-44
2023/03/19 08:35:26;;;;;;;5.50;4.13;;;;;;;;;;5095286;28;20453;-43
2023/03/19 08:37:53;;;;;;;3.50;3.20;;;;;;;;;;5093870;28;20920;-44
2023/03/19 08:40:19;;;;;;;4.00;3.30;;;;;;;;;;5094454;28;20413;-44
2023/03/19 08:42:45;;;;;;;5.77;3.33;;;;;;;;;;5095074;28;20425;-44
2023/03/19 08:45:12;;;;;;;4.30;3.80;;;;;;;;;;5095025;28;20984;-43
2023/03/19 08:47:38;;;;;;;11.00;4.40;;;;;;;;;;5094918;28;20496;-44
2023/03/19 08:50:04;;;;;;;6.70;5.07;;;;;;;;;;5094452;28;20416;-44
2023/03/19 08:52:30;;;;;;;4.60;3.70;;;;;;;;;;5088899;28;21027;-43
2023/03/19 08:54:56;;;;;;;4.00;3.60;;;;;;;;;;5094790;28;20564;-44
2023/03/19 08:57:22;;;;;;;3.80;3.50;;;;;;;;;;5090272;28;20467;-44
2023/03/19 08:59:48;;;;;;;6.33;4.00;;;;;;;;;;5094697;28;20883;-44
2023/03/19 09:02:14;;;;;;;6.53;3.83;;;;;;;;;;5093993;28;20431;-44
2023/03/19 09:04:41;;;;;;;4.80;3.53;;;;;;;;;;5093724;28;20775;-44
2023/03/19 09:07:07;;;;;;;4.30;3.70;;;;;;;;;;5094628;28;20409;-44
2023/03/19 09:09:33;;;;;;;5.43;3.30;;;;;;;;;;5094600;28;20912;-44
2023/03/19 09:11:59;;;;;;;4.00;3.23;;;;;;;;;;5091577;28;20521;-44
2023/03/19 09:14:26;;;;;;;4.80;3.17;;;;;;;;;;5094507;28;20517;-44
2023/03/19 09:16:52;;;;;;;4.00;3.03;;;;;;;;;;5094076;28;20462;-44
2023/03/19 09:19:18;;;;;;;3.13;2.93;;;;;;;;;;5093149;28;20916;-43
2023/03/19 09:21:45;;;;;;;3.10;2.80;;;;;;;;;;5093876;28;20439;-44
2023/03/19 09:24:11;;;;;;;4.73;3.23;;;;;;;;;;5094259;28;20938;-43
2023/03/19 09:26:37;;;;;;;3.17;2.90;;;;;;;;;;5086963;28;20436;-44
2023/03/19 09:29:03;;;;;;;4.87;2.57;;;;;;;;;;5086026;28;20980;-44
2023/03/19 09:31:30;;;;;;;3.13;2.83;;;;;;;;;;5088231;28;20402;-45
2023/03/19 09:33:56;;;;;;;3.40;2.80;;;;;;;;;;5093012;28;20825;-43
2023/03/19 09:36:22;;;;;;;3.03;2.80;;;;;;;;;;5094188;28;20413;-45
2023/03/19 09:38:48;;;;;;;2.80;2.60;;;;;;;;;;5093963;28;20419;-43
2023/03/19 09:41:21;;;;;;;3.40;3.10;;;;;;;;;;5093426;28;20414;-44
2023/03/19 09:43:48;;;;;;;4.17;2.70;;;;;;;;;;5093700;28;20433;-44
2023/03/19 09:46:18;;;;;;;3.97;2.90;;;;;;;;;;5092829;28;20487;-44
2023/03/19 09:48:51;;;;;;;3.77;3.40;;;;;;;;;;5090960;28;20414;-44
2023/03/19 09:51:37;;;;;;;6.57;3.87;;;;;;;;;;5093225;28;20398;-43
2023/03/19 09:54:06;;;;;;;3.50;3.20;;;;;;;;;;5087535;28;20764;-44
2023/03/19 09:56:32;;;;;;;4.20;3.80;;;;;;;;;;5090338;28;20418;-44
2023/03/19 09:58:58;;;;;;;3.27;3.07;;;;;;;;;;5079375;28;20426;-44
2023/03/19 10:01:26;;;;;;;3.40;3.20;;;;;;;;;;5093036;28;20414;-45
2023/03/19 10:04:08;;;;;;;3.30;3.00;;;;;;;;;;5089493;28;20446;-44
2023/03/19 10:06:35;;;;;;;3.23;2.97;;;;;;;;;;5088631;28;20417;-44
2023/03/19 10:09:14;;;;;;;3.53;3.23;;;;;;;;;;5093224;28;20419;-44
2023/03/19 10:12:00;;;;;;;3.63;3.33;;;;;;;;;;5092904;28;20421;-45
2023/03/19 10:14:37;;;;;;;2.93;2.63;;;;;;;;;;5086432;28;20532;-44
2023/03/19 10:17:05;;;;;;;3.60;2.93;;;;;;;;;;5093014;28;20475;-45
2023/03/19 10:19:38;;;;;;;4.07;3.70;;;;;;;;;;5092832;28;20410;-44
2023/03/19 10:22:07;;;;;;;4.10;3.80;;;;;;;;;;5089816;28;20399;-44
2023/03/19 10:24:38;;;;;;;4.77;4.00;;;;;;;;;;5088292;28;20398;-44
2023/03/19 10:27:11;;;;;;;4.10;3.80;;;;;;;;;;5093024;28;20407;-44
2023/03/19 10:29:39;;;;;;;4.23;3.90;;;;;;;;;;5084456;28;20769;-44
2023/03/19 10:32:20;;;;;;;4.00;3.63;;;;;;;;;;5091226;28;20437;-45
2023/03/19 10:34:48;;;;;;;6.30;4.73;;;;;;;;;;5093326;28;20466;-44
2023/03/19 10:37:43;;;;;;;4.87;4.33;;;;;;;;;;5093001;28;20418;-44
2023/03/19 10:40:20;;;;;;;4.13;3.73;;;;;;;;;;5083312;28;20788;-44
2023/03/19 10:43:05;;;;;;;4.70;3.77;;;;;;;;;;5091892;28;20423;-46
2023/03/19 10:45:33;;;;;;;3.80;3.30;;;;;;;;;;5092901;28;20418;-46
2023/03/19 10:48:00;;;;;;;4.10;3.80;;;;;;;;;;5092688;28;20418;-44
2023/03/19 10:50:29;;;;;;;4.47;4.07;;;;;;;;;;5092306;28;20408;-45
2023/03/19 10:53:22;;;;;;;4.53;4.23;;;;;;;;;;5092529;28;20466;-44
2023/03/19 10:55:56;;;;;;;4.33;3.93;;;;;;;;;;5092376;28;20988;-45
2023/03/19 10:58:24;;;;;;;4.20;3.80;;;;;;;;;;5090943;28;20488;-44
2023/03/19 11:00:55;;;;;;;4.70;3.93;;;;;;;;;;5089544;28;20905;-43
2023/03/19 11:03:36;;;;;;;4.97;4.60;;;;;;;;;;5092440;28;20426;-44
2023/03/19 11:06:22;;;;;;;4.50;4.10;;;;;;;;;;5092421;28;20382;-44
2023/03/19 11:08:55;;;;;;;4.90;4.60;;;;;;;;;;5088165;28;20472;-44
2023/03/19 11:11:25;;;;;;;4.03;3.50;;;;;;;;;;5091296;28;20839;-45
2023/03/19 11:13:51;;;;;;;4.53;4.13;;;;;;;;;;5091477;28;20419;-44
2023/03/19 11:16:17;;;;;;;3.67;3.37;;;;;;;;;;5091178;28;20938;-45
2023/03/19 11:18:46;;;;;;;4.73;4.33;;;;;;;;;;5092108;28;20513;-44
2023/03/19 11:21:21;;;;;;;4.87;4.47;;;;;;;;;;5091751;28;20389;-45
2023/03/19 11:23:51;;;;;;;6.47;4.90;;;;;;;;;;5087846;28;20417;-48
2023/03/19 11:26:20;;;;;;;6.00;4.17;;;;;;;;;;5091274;28;20399;-46
2023/03/19 11:28:50;;;;;;;4.57;4.23;;;;;;;;;;5086700;28;20398;-47
2023/03/19 11:31:22;;;;;;;4.73;4.33;;;;;;;;;;5093758;28;20428;-49
2023/03/19 11:34:21;;;;;;;4.23;3.73;;;;;;;;;;5094769;28;20808;-48
2023/03/19 11:36:59;;;;;;;4.50;4.10;;;;;;;;;;5074221;28;20438;-49
2023/03/19 11:39:29;;;;;;;4.07;3.87;;;;;;;;;;5090655;28;20405;-49
2023/03/19 11:42:18;;;;;;;6.57;3.97;;;;;;;;;;5093464;28;20456;-49
2023/03/19 11:44:55;;;;;;;5.40;5.00;;;;;;;;;;5088915;28;20926;-49
2023/03/19 11:47:31;;;;;;;4.90;4.40;;;;;;;;;;5093724;28;20411;-48
2023/03/19 11:50:04;;;;;;;5.10;4.80;;;;;;;;;;5085729;28;20939;-47
2023/03/19 11:52:36;;;;;;;5.60;5.20;;;;;;;;;;5092445;28;20431;-48
2023/03/19 11:55:17;;;;;;;5.67;5.20;;;;;;;;;;5091749;28;20457;-47
2023/03/19 11:57:53;;;;;;;5.20;4.90;;;;;;;;;;5082209;28;20449;-46
2023/03/19 12:00:22;;;;;;;5.03;4.73;;;;;;;;;;5087210;28;20407;-46
2023/03/19 12:03:06;;;;;;;5.37;4.97;;;;;;;;;;5085610;28;20403;-48
2023/03/19 12:05:45;;;;;;;4.13;3.73;;;;;;;;;;5088020;28;20900;-48
2023/03/19 12:08:17;;;;;;;5.70;5.13;;;;;;;;;;5082084;28;20821;-48
2023/03/19 12:10:58;;;;;;;3.50;3.20;;;;;;;;;;5089596;28;20423;-46
2023/03/19 12:13:37;;;;;;;7.10;3.20;;;;;;;;;;5095357;28;20413;-48
2023/03/19 12:16:20;;;;;;;7.30;3.67;;;;;;;;;;5098454;28;20419;-47
2023/03/19 12:18:52;;;;;;;2.50;2.33;;;;;;;;;;5094613;28;20410;-48
2023/03/19 12:21:18;;;;;;;2.50;2.10;;;;;;;;;;5085607;28;20953;-45
2023/03/19 12:23:58;;;;;;;4.37;2.13;;;;;;;;;;5092923;28;20497;-48
2023/03/19 12:26:27;;;;;;;1.90;1.80;;;;;;;;;;5085304;28;20490;-47
2023/03/19 12:29:19;;;;;;;2.50;2.00;;;;;;;;;;5092223;28;20814;-48
2023/03/19 12:31:53;;;;;;;1.73;1.63;;;;;;;;;;5091514;28;20409;-48
2023/03/19 12:34:22;;;;;;;2.30;2.10;;;;;;;;;;5092244;28;20433;-47
2023/03/19 12:36:51;;;;;;;3.00;2.40;;;;;;;;;;5093694;28;20470;-47
2023/03/19 12:39:19;;;;;;;2.17;2.00;;;;;;;;;;5090775;28;20402;-48
2023/03/19 12:41:47;;;;;;;2.37;2.17;;;;;;;;;;5079822;28;20393;-49
2023/03/19 12:44:18;;;;;;;2.10;2.00;;;;;;;;;;5086510;28;20423;-47
2023/03/19 12:46:56;;;;;;;3.90;2.33;;;;;;;;;;5083182;28;20454;-47
2023/03/19 12:49:35;;;;;;;2.80;1.90;;;;;;;;;;5091167;28;20439;-48
2023/03/19 12:52:12;;;;;;;2.07;1.87;;;;;;;;;;5089382;28;20428;-48
2023/03/19 12:54:45;;;;;;;2.90;2.70;;;;;;;;;;5090955;28;20458;-49
2023/03/19 12:57:19;;;;;;;3.63;3.00;;;;;;;;;;5082660;28;20436;-47
2023/03/19 13:00:05;;;;;;;3.30;3.00;;;;;;;;;;5095057;28;20907;-45
2023/03/19 13:02:41;;;;;;;3.23;2.93;;;;;;;;;;5096864;28;20426;-49
2023/03/19 13:05:11;;;;;;;3.27;3.07;;;;;;;;;;5096573;28;20408;-47
2023/03/19 13:07:46;;;;;;;4.17;3.87;;;;;;;;;;5091875;28;20900;-48
2023/03/19 13:10:19;;;;;;;3.80;3.50;;;;;;;;;;5086961;28;20482;-48
2023/03/19 13:12:46;;;;;;;5.67;4.10;;;;;;;;;;5093540;28;20494;-46
2023/03/19 13:15:13;;;;;;;4.53;4.20;;;;;;;;;;5096496;28;20505;-48
2023/03/19 13:17:54;;;;;;;4.83;4.43;;;;;;;;;;5095902;28;20404;-47
2023/03/19 13:20:28;;;;;;;5.10;4.60;;;;;;;;;;5095992;28;20415;-47
2023/03/19 13:22:56;;;;;;;4.63;4.30;;;;;;;;;;5091883;28;20533;-45
2023/03/19 13:25:29;;;;;;;4.97;4.60;;;;;;;;;;5091380;28;21089;-47
2023/03/19 13:27:55;;;;;;;4.47;4.10;;;;;;;;;;5088668;28;20534;-49
2023/03/19 13:30:21;;;;;;;4.97;4.00;;;;;;;;;;5100238;28;20410;-48
2023/03/19 13:32:49;;;;;;;4.17;3.87;;;;;;;;;;5095684;28;20455;-47
2023/03/19 13:35:15;;;;;;;4.03;3.73;;;;;;;;;;5105572;28;20475;-47
2023/03/19 13:37:42;;;;;;;4.13;3.83;;;;;;;;;;5104313;28;20833;-46
2023/03/19 13:40:27;;;;;;;4.73;4.33;;;;;;;;;;5092471;28;20830;-46
2023/03/19 13:42:56;;;;;;;5.00;4.50;;;;;;;;;;5086163;28;20409;-47
2023/03/19 13:45:28;;;;;;;4.47;4.17;;;;;;;;;;5092719;28;20388;-46
2023/03/19 13:47:57;;;;;;;7.80;4.73;;;;;;;;;;5093148;28;20597;-45
2023/03/19 13:50:23;;;;;;;4.53;4.10;;;;;;;;;;5092963;28;20410;-46
2023/03/19 13:52:52;;;;;;;4.83;4.00;;;;;;;;;;5089175;28;20450;-47
2023/03/19 13:55:21;;;;;;;4.97;4.57;;;;;;;;;;5093245;28;20505;-47
2023/03/19 13:58:00;;;;;;;5.23;4.07;;;;;;;;;;5094202;28;20450;-46
2023/03/19 14:00:45;;;;;;;4.73;4.20;;;;;;;;;;5094314;28;20387;-49
2023/03/19 14:03:31;;;;;;;3.63;3.07;;;;;;;;;;5094404;28;20421;-48
2023/03/19 14:05:58;;;;;;;2.10;2.00;;;;;;;;;;5094324;28;20414;-48
2023/03/19 14:08:26;;;;;;;1.80;1.70;;;;;;;;;;5096350;28;20415;-46
2023/03/19 14:10:54;;;;;;;2.27;1.67;;;;;;;;;;5095028;28;20439;-47
2023/03/19 14:13:42;;;;;;;1.83;1.57;;;;;;;;;;5095663;28;20476;-47
2023/03/19 14:16:16;;;;;;;1.83;1.73;;;;;;;;;;5094988;28;21117;-48
2023/03/19 14:18:43;;;;;;;1.90;1.80;;;;;;;;;;5095243;28;20412;-47
2023/03/19 14:21:10;;;;;;;1.67;1.57;;;;;;;;;;5082400;28;20495;-48
2023/03/19 14:23:38;;;;;;;1.50;1.40;;;;;;;;;;5089031;28;20556;-47
2023/03/19 14:26:14;;;;;;;1.47;1.37;;;;;;;;;;5095617;28;20426;-47
2023/03/19 14:28:59;;;;;;;1.63;1.20;;;;;;;;;;5095576;28;20375;-46
2023/03/19 14:31:29;;;;;;;1.40;1.30;;;;;;;;;;5086862;28;20520;-49
2023/03/19 14:34:04;;;;;;;1.70;1.60;;;;;;;;;;5093564;28;20397;-49
2023/03/19 14:36:31;;;;;;;1.67;1.57;;;;;;;;;;5089940;28;20467;-47
2023/03/19 14:38:59;;;;;;;1.87;1.77;;;;;;;;;;5095160;28;20915;-47
2023/03/19 14:41:27;;;;;;;2.10;1.70;;;;;;;;;;5094561;28;20399;-49
2023/03/19 14:44:00;;;;;;;3.00;2.00;;;;;;;;;;5094742;28;20830;-45
2023/03/19 14:46:50;;;;;;;2.20;2.00;;;;;;;;;;5095838;28;20386;-48
2023/03/19 14:49:28;;;;;;;2.00;1.90;;;;;;;;;;5086548;28;20367;-46
2023/03/19 14:52:09;;;;;;;2.53;2.33;;;;;;;;;;5089349;28;20818;-45